Time;durP1;ratioP1;P1;durP2;ratioP2;P2;SDS_P1;SDS_P2;PMS_P1;PMS_P2;Temp;Humidity;BMP_temperature;BMP_pressure;BME280_temperature;BME280_humidity;BME280_pressure;Samples;Min_cycle;Max_cycle;Signal;HPM_P1;HPM_P2
2022/05/06 00:02:07;;;;;;;36.85;18.23;;;6.00;99.90;;;;;;5028272;28;20106;-82
2022/05/06 00:04:32;;;;;;;41.05;18.20;;;5.90;99.90;;;;;;5013627;28;20527;-82
2022/05/06 00:06:58;;;;;;;41.40;21.35;;;5.90;99.90;;;;;;5012799;28;20080;-82
2022/05/06 00:09:24;;;;;;;43.20;20.55;;;5.90;99.90;;;;;;5013148;28;20124;-82
2022/05/06 00:11:51;;;;;;;36.58;18.13;;;5.90;99.90;;;;;;5013564;28;20038;-82
2022/05/06 00:14:17;;;;;;;39.75;19.35;;;5.90;99.90;;;;;;5028627;28;20043;-82
2022/05/06 00:16:43;;;;;;;39.75;19.10;;;5.80;99.90;;;;;;5011108;28;20042;-82
2022/05/06 00:19:08;;;;;;;39.65;18.77;;;5.80;99.90;;;;;;5028308;28;20046;-82
2022/05/06 00:21:34;;;;;;;43.80;19.25;;;5.80;99.90;;;;;;5012169;28;20425;-82
2022/05/06 00:23:59;;;;;;;41.97;19.05;;;5.80;99.90;;;;;;5011866;28;20050;-82
2022/05/06 00:26:25;;;;;;;44.58;18.52;;;5.70;99.90;;;;;;5011919;28;20549;-82
2022/05/06 00:28:50;;;;;;;50.08;19.27;;;5.70;99.90;;;;;;5013692;28;20050;-82
2022/05/06 00:31:16;;;;;;;41.90;20.23;;;5.70;99.90;;;;;;5012698;28;20033;-82
2022/05/06 00:33:43;;;;;;;40.47;18.13;;;5.70;99.90;;;;;;5013610;28;20042;-82
2022/05/06 00:36:08;;;;;;;40.55;18.85;;;5.60;99.90;;;;;;5012302;28;20457;-82
2022/05/06 00:38:34;;;;;;;40.47;17.85;;;5.60;99.90;;;;;;5012761;28;20046;-82
2022/05/06 00:41:00;;;;;;;51.40;19.13;;;5.60;99.90;;;;;;5012072;28;20056;-82
2022/05/06 00:43:25;;;;;;;42.50;18.35;;;5.60;99.90;;;;;;5011840;28;20041;-82
2022/05/06 00:45:54;;;;;;;45.72;20.02;;;5.60;99.90;;;;;;5027949;28;20472;-82
2022/05/06 00:48:23;;;;;;;47.58;20.48;;;5.50;99.90;;;;;;5013251;28;20042;-82
2022/05/06 00:50:49;;;;;;;47.15;19.77;;;5.50;99.90;;;;;;5012206;28;20046;-82
2022/05/06 00:53:15;;;;;;;46.20;21.50;;;5.50;99.90;;;;;;5013994;28;20041;-82
2022/05/06 00:55:42;;;;;;;50.88;23.45;;;5.50;99.90;;;;;;5013384;28;20049;-82
2022/05/06 00:58:08;;;;;;;51.28;22.45;;;5.40;99.90;;;;;;5028705;28;20406;-82
2022/05/06 01:00:33;;;;;;;45.50;20.70;;;5.40;99.90;;;;;;5012877;28;20042;-82
2022/05/06 01:02:59;;;;;;;50.72;21.45;;;5.40;99.90;;;;;;5013865;28;20132;-82
2022/05/06 01:05:25;;;;;;;43.38;20.02;;;5.30;99.90;;;;;;5030943;28;20046;-82
2022/05/06 01:07:52;;;;;;;43.05;20.00;;;5.30;99.90;;;;;;5016799;28;20041;-82
2022/05/06 01:10:19;;;;;;;44.15;19.95;;;5.30;99.90;;;;;;5016658;28;20046;-82
2022/05/06 01:12:45;;;;;;;45.85;21.23;;;5.30;99.90;;;;;;5031524;28;20045;-82
2022/05/06 01:15:20;;;;;;;44.95;19.48;;;5.30;99.90;;;;;;5013989;28;20378;-82
2022/05/06 01:17:50;;;;;;;46.90;20.13;;;5.30;99.90;;;;;;5013344;28;20081;-82
2022/05/06 01:20:17;;;;;;;50.78;20.27;;;5.20;99.90;;;;;;5030455;28;20053;-82
2022/05/06 01:22:44;;;;;;;46.33;20.38;;;5.20;99.90;;;;;;5013693;28;20160;-82
2022/05/06 01:25:11;;;;;;;46.50;19.92;;;5.20;99.90;;;;;;5014208;28;20042;-82
2022/05/06 01:27:44;;;;;;;46.63;20.27;;;5.10;99.90;;;;;;5013695;28;20395;-82
2022/05/06 01:30:12;;;;;;;47.25;21.20;;;5.10;99.90;;;;;;5012852;28;20497;-82
2022/05/06 01:32:38;;;;;;;42.83;20.73;;;5.10;99.90;;;;;;5012682;28;20145;-82
2022/05/06 01:35:05;;;;;;;50.40;21.38;;;5.10;99.90;;;;;;5013866;28;20070;-82
2022/05/06 01:37:34;;;;;;;51.33;22.45;;;5.10;99.90;;;;;;5011958;28;20128;-82
2022/05/06 01:40:03;;;;;;;48.17;20.95;;;5.10;99.90;;;;;;5013369;28;20395;-82
2022/05/06 01:42:31;;;;;;;55.90;22.33;;;5.00;99.90;;;;;;5013330;28;20045;-83
2022/05/06 01:44:57;;;;;;;54.97;22.48;;;5.00;99.90;;;;;;5012949;28;20418;-82
2022/05/06 01:47:26;;;;;;;42.17;19.65;;;4.90;99.90;;;;;;5013386;28;20042;-82
2022/05/06 01:49:58;;;;;;;49.72;21.73;;;4.90;99.90;;;;;;5012522;28;20045;-82
2022/05/06 01:52:24;;;;;;;54.10;23.20;;;4.90;99.90;;;;;;5012263;28;20098;-82
2022/05/06 01:54:50;;;;;;;48.25;21.33;;;4.90;99.90;;;;;;5011842;28;20061;-82
2022/05/06 01:57:16;;;;;;;51.78;21.38;;;4.90;99.90;;;;;;5013036;28;20042;-82
2022/05/06 01:59:42;;;;;;;52.25;21.70;;;4.90;99.90;;;;;;5054595;22;20054;-84
2022/05/06 02:02:07;;;;;;;49.10;21.10;;;4.90;99.90;;;;;;4996621;28;20133;-83
2022/05/06 02:07:17;;;;;;;51.80;22.95;;;4.90;99.90;;;;;;5027155;28;20112;-80
2022/05/06 02:09:42;;;;;;;54.83;22.48;;;4.80;99.90;;;;;;4993038;28;20050;-81
2022/05/06 02:12:08;;;;;;;56.90;22.50;;;4.80;99.90;;;;;;4993699;28;20053;-83
2022/05/06 02:14:34;;;;;;;57.10;22.20;;;4.80;99.90;;;;;;5025009;28;20046;-83
2022/05/06 02:17:00;;;;;;;59.55;22.20;;;4.80;99.90;;;;;;4996667;28;20046;-83
2022/05/06 02:19:25;;;;;;;50.22;20.60;;;4.80;99.90;;;;;;5013283;28;20046;-83
2022/05/06 02:21:51;;;;;;;46.67;21.10;;;4.80;99.90;;;;;;5011629;28;20053;-83
2022/05/06 02:24:16;;;;;;;53.38;23.70;;;4.90;99.90;;;;;;4993006;28;20542;-83
2022/05/06 02:26:42;;;;;;;60.97;25.20;;;4.80;99.90;;;;;;4993793;28;20111;-83
2022/05/06 02:29:08;;;;;;;66.63;26.73;;;4.70;99.90;;;;;;4992688;28;20053;-83
2022/05/06 02:34:25;;;;;;;49.90;23.15;;;4.70;99.90;;;;;;4976787;28;20108;-83
2022/05/06 02:36:51;;;;;;;50.05;20.98;;;4.70;99.90;;;;;;5015933;28;20050;-83
2022/05/06 02:39:16;;;;;;;52.60;21.42;;;4.60;99.90;;;;;;5047981;28;20092;-83
2022/05/06 02:41:42;;;;;;;57.15;22.65;;;4.60;99.90;;;;;;5043589;28;20129;-83
2022/05/06 02:44:08;;;;;;;54.55;21.80;;;4.60;99.90;;;;;;5011376;28;20045;-82
2022/05/06 02:46:35;;;;;;;60.05;24.33;;;4.60;99.90;;;;;;4996408;28;20406;-83
2022/05/06 02:49:01;;;;;;;60.65;22.90;;;4.60;99.90;;;;;;4979123;28;20506;-83
2022/05/06 02:51:28;;;;;;;55.42;22.33;;;4.50;99.90;;;;;;5011729;28;20057;-83
2022/05/06 02:53:57;;;;;;;51.13;20.70;;;4.50;99.90;;;;;;4996508;28;20077;-83
2022/05/06 02:56:24;;;;;;;61.90;24.48;;;4.50;99.90;;;;;;4996106;28;20090;-83
2022/05/06 02:58:49;;;;;;;55.80;23.25;;;4.60;99.90;;;;;;4995368;28;20456;-83
2022/05/06 03:01:18;;;;;;;54.47;23.92;;;4.50;99.90;;;;;;5011623;28;20491;-83
2022/05/06 03:03:44;;;;;;;58.88;24.45;;;4.40;99.90;;;;;;5030641;28;20089;-83
2022/05/06 03:06:09;;;;;;;54.33;24.15;;;4.40;99.90;;;;;;5015718;28;20042;-83
2022/05/06 03:08:35;;;;;;;58.08;24.90;;;4.40;99.90;;;;;;5012670;28;20398;-83
2022/05/06 03:11:01;;;;;;;71.80;24.50;;;4.30;99.90;;;;;;5007929;28;20045;-83
2022/05/06 03:13:27;;;;;;;60.28;23.90;;;4.30;99.90;;;;;;5015326;28;20041;-84
2022/05/06 03:15:53;;;;;;;51.97;23.40;;;4.30;99.90;;;;;;4996399;28;20046;-83
2022/05/06 03:18:19;;;;;;;60.28;24.25;;;4.20;99.90;;;;;;4996143;28;20039;-83
2022/05/06 03:20:45;;;;;;;52.72;21.77;;;4.20;99.90;;;;;;4996016;28;20045;-83
2022/05/06 03:23:14;;;;;;;66.22;24.20;;;4.20;99.90;;;;;;4996134;28;20038;-83
2022/05/06 03:25:40;;;;;;;61.88;24.90;;;4.30;99.90;;;;;;5013941;28;20046;-83
2022/05/06 03:28:09;;;;;;;67.25;23.58;;;4.10;99.90;;;;;;5031062;28;20038;-83
2022/05/06 03:30:39;;;;;;;61.78;23.30;;;4.20;99.90;;;;;;5015422;28;20054;-83
2022/05/06 03:33:09;;;;;;;67.45;23.75;;;4.10;99.90;;;;;;5015203;28;20151;-83
2022/05/06 03:35:36;;;;;;;61.90;24.55;;;4.10;99.90;;;;;;5027751;28;20038;-83
2022/05/06 03:38:03;;;;;;;57.00;23.48;;;4.10;99.90;;;;;;4996230;28;20038;-83
2022/05/06 03:40:29;;;;;;;65.80;26.00;;;4.10;99.90;;;;;;4996027;28;20105;-83
2022/05/06 03:42:54;;;;;;;59.35;24.15;;;4.10;99.90;;;;;;5006206;28;20042;-83
2022/05/06 03:45:20;;;;;;;66.63;23.33;;;4.10;99.90;;;;;;5015930;28;20050;-83
2022/05/06 03:47:45;;;;;;;64.32;23.50;;;4.10;99.90;;;;;;5015614;28;20057;-83
2022/05/06 03:52:55;;;;;;;73.68;27.08;;;4.20;99.90;;;;;;5015844;28;20168;-81
2022/05/06 03:55:21;;;;;;;75.88;29.33;;;4.30;99.90;;;;;;5013829;28;20073;-81
2022/05/06 03:57:47;;;;;;;69.90;28.00;;;4.40;99.90;;;;;;4998409;28;20050;-81
2022/05/06 04:00:14;;;;;;;89.15;32.38;;;4.50;99.90;;;;;;5015572;28;20046;-81
2022/05/06 04:02:40;;;;;;;174.55;41.00;;;4.70;99.90;;;;;;5015599;28;20537;-81
2022/05/06 04:05:06;;;;;;;146.60;40.67;;;4.90;99.90;;;;;;5015266;28;20045;-81
2022/05/06 04:07:32;;;;;;;147.55;39.92;;;5.10;99.90;;;;;;5015468;28;20045;-81
2022/05/06 04:09:57;;;;;;;123.10;35.65;;;5.20;99.90;;;;;;5014997;28;20041;-81
2022/05/06 04:12:23;;;;;;;209.85;44.20;;;5.20;99.90;;;;;;5015542;28;20494;-81
2022/05/06 04:14:49;;;;;;;175.50;43.95;;;5.30;99.90;;;;;;5013515;28;20053;-81
2022/05/06 04:17:15;;;;;;;221.85;45.15;;;5.30;99.90;;;;;;5015451;28;20049;-81
2022/05/06 04:23:28;;;;;;;264.00;49.30;;;5.40;99.90;;;;;;5019225;28;20379;-81
2022/05/06 04:25:15;;;;;;;256.45;52.33;;;5.60;99.90;;;;;;5026511;28;20054;-81
2022/05/06 04:27:44;;;;;;;305.92;59.80;;;5.60;99.90;;;;;;5016207;28;20103;-82
2022/05/06 04:30:11;;;;;;;292.55;58.35;;;5.80;99.90;;;;;;5015209;28;20045;-81
2022/05/06 04:32:38;;;;;;;361.40;59.72;;;5.90;99.90;;;;;;5015673;28;20065;-82
2022/05/06 04:35:08;;;;;;;303.27;57.88;;;6.00;99.90;;;;;;5017064;28;20038;-82
2022/05/06 04:37:34;;;;;;;367.45;62.22;;;6.10;99.90;;;;;;5016523;28;20120;-82
2022/05/06 04:40:00;;;;;;;447.65;67.65;;;6.10;99.90;;;;;;5016481;28;20540;-81
2022/05/06 04:42:26;;;;;;;362.25;59.10;;;6.20;99.90;;;;;;5016685;28;20042;-81
2022/05/06 04:44:52;;;;;;;372.42;60.47;;;6.30;99.90;;;;;;5014866;28;20042;-81
2022/05/06 04:47:18;;;;;;;464.55;67.20;;;6.30;99.90;;;;;;5016602;28;20042;-82
2022/05/06 04:49:43;;;;;;;353.73;59.58;;;6.40;99.90;;;;;;5016659;28;20042;-81
2022/05/06 04:52:09;;;;;;;303.23;56.63;;;6.40;99.90;;;;;;5016619;28;20042;-81
2022/05/06 04:54:35;;;;;;;319.73;55.50;;;6.40;99.90;;;;;;5015402;28;20120;-81
2022/05/06 04:57:00;;;;;;;295.50;55.08;;;6.50;99.90;;;;;;5015618;28;20073;-81
2022/05/06 04:59:26;;;;;;;332.77;54.75;;;6.50;99.90;;;;;;5015048;28;20081;-82
2022/05/06 05:01:51;;;;;;;357.50;59.30;;;6.60;99.90;;;;;;5015405;28;20495;-82
2022/05/06 05:04:17;;;;;;;226.68;48.20;;;6.70;99.90;;;;;;5014625;28;20136;-82
2022/05/06 05:06:42;;;;;;;275.48;50.92;;;6.80;99.90;;;;;;5014468;28;20061;-82
2022/05/06 05:09:08;;;;;;;236.48;49.10;;;6.90;99.90;;;;;;5014315;28;20116;-82
2022/05/06 05:11:35;;;;;;;206.73;46.47;;;7.00;99.90;;;;;;5014313;28;20042;-82
2022/05/06 05:14:06;;;;;;;191.80;47.05;;;7.00;99.90;;;;;;5013842;28;20149;-82
2022/05/06 05:16:33;;;;;;;155.25;41.45;;;7.20;99.90;;;;;;5014960;28;20113;-82
2022/05/06 05:18:59;;;;;;;149.38;40.70;;;7.30;99.90;;;;;;5013735;28;20041;-81
2022/05/06 05:21:24;;;;;;;122.07;37.08;;;7.40;99.90;;;;;;5014027;28;20504;-82
2022/05/06 05:23:50;;;;;;;98.63;37.22;;;7.40;99.90;;;;;;5013605;28;20049;-82
2022/05/06 05:26:15;;;;;;;126.47;36.33;;;7.50;99.90;;;;;;5013521;28;20034;-82
2022/05/06 05:28:41;;;;;;;106.90;34.15;;;7.50;99.90;;;;;;5013545;28;20153;-82
2022/05/06 05:31:06;;;;;;;92.78;31.83;;;7.60;99.90;;;;;;5014035;28;20121;-82
2022/05/06 05:33:32;;;;;;;101.78;31.67;;;7.70;99.90;;;;;;5014402;28;20088;-82
2022/05/06 05:35:57;;;;;;;124.35;32.80;;;7.60;99.90;;;;;;5013832;28;20046;-82
2022/05/06 05:38:23;;;;;;;146.50;35.20;;;7.60;99.90;;;;;;5013407;28;20046;-82
2022/05/06 05:40:49;;;;;;;140.85;32.47;;;7.70;99.90;;;;;;5013074;28;20102;-82
2022/05/06 05:48:43;;;;;;;107.95;31.58;;;7.70;99.90;;;;;;5012194;28;20061;-82
2022/05/06 05:51:09;;;;;;;162.23;32.13;;;7.60;99.90;;;;;;5014876;28;20038;-82
2022/05/06 05:53:34;;;;;;;154.07;32.05;;;7.70;99.90;;;;;;5015441;28;20109;-82
2022/05/06 05:56:00;;;;;;;128.15;32.35;;;7.70;99.90;;;;;;5014145;28;20046;-81
2022/05/06 05:58:26;;;;;;;110.40;32.17;;;7.90;99.90;;;;;;5015976;28;20406;-81
2022/05/06 06:00:52;;;;;;;140.32;33.58;;;8.30;99.90;;;;;;5017564;28;20050;-81
2022/05/06 06:03:18;;;;;;;143.48;35.03;;;8.60;99.90;;;;;;5013139;28;20557;-81
2022/05/06 06:05:44;;;;;;;120.30;29.70;;;9.00;99.90;;;;;;5014625;28;20037;-81
2022/05/06 06:08:11;;;;;;;88.72;27.85;;;9.20;99.90;;;;;;5017475;28;20470;-82
2022/05/06 06:10:37;;;;;;;81.20;26.77;;;9.40;99.90;;;;;;5014821;28;20056;-82
2022/05/06 06:13:04;;;;;;;61.85;24.77;;;9.60;99.90;;;;;;5013546;28;20190;-82
2022/05/06 06:15:32;;;;;;;72.30;24.08;;;9.80;99.90;;;;;;5013922;28;20054;-81
2022/05/06 06:17:58;;;;;;;108.63;29.98;;;9.90;99.90;;;;;;5014210;28;20480;-82
2022/05/06 06:20:23;;;;;;;61.92;24.17;;;9.70;99.90;;;;;;5013441;28;20046;-82
2022/05/06 06:22:50;;;;;;;58.88;24.77;;;9.80;99.90;;;;;;5013953;28;20057;-82
2022/05/06 06:25:16;;;;;;;61.90;26.38;;;9.90;99.90;;;;;;5016877;28;20038;-82
2022/05/06 06:27:43;;;;;;;61.67;25.42;;;10.10;99.90;;;;;;5019761;28;20039;-82
2022/05/06 06:30:10;;;;;;;60.35;24.60;;;10.20;99.90;;;;;;5017061;28;20045;-82
2022/05/06 06:32:35;;;;;;;123.53;29.85;;;10.10;99.90;;;;;;5014977;28;20069;-81
2022/05/06 06:35:01;;;;;;;107.95;26.45;;;10.10;99.90;;;;;;5018531;28;20042;-82
2022/05/06 06:37:27;;;;;;;90.25;29.30;;;10.10;99.90;;;;;;5016817;28;20130;-82
2022/05/06 06:39:53;;;;;;;143.82;34.15;;;10.10;99.90;;;;;;5016097;28;20041;-82
2022/05/06 06:42:19;;;;;;;104.82;31.10;;;10.00;99.90;;;;;;5015984;28;20095;-81
2022/05/06 06:44:44;;;;;;;87.85;30.55;;;9.90;99.90;;;;;;5014998;28;20413;-82
2022/05/06 06:47:10;;;;;;;112.07;33.22;;;9.90;99.90;;;;;;5011329;28;20034;-81
2022/05/06 06:49:36;;;;;;;118.35;30.48;;;9.90;99.90;;;;;;5014241;28;20123;-82
2022/05/06 06:52:03;;;;;;;57.50;29.80;;;9.90;99.90;;;;;;5014080;28;20084;-82
2022/05/06 06:54:29;;;;;;;82.28;29.42;;;10.00;99.90;;;;;;5014343;28;20289;-82
2022/05/06 06:56:54;;;;;;;67.53;29.33;;;10.20;99.90;;;;;;5015512;28;20045;-82
2022/05/06 06:59:20;;;;;;;61.17;27.85;;;10.30;99.90;;;;;;5014597;28;20061;-82
2022/05/06 07:01:45;;;;;;;55.38;27.02;;;10.50;99.90;;;;;;5015287;28;20053;-81
2022/05/06 07:04:11;;;;;;;52.63;24.85;;;10.70;99.90;;;;;;5015722;28;20048;-82
2022/05/06 07:12:05;;;;;;;44.60;24.70;;;11.80;99.90;;;;;;5014698;28;20045;-82
2022/05/06 07:14:33;;;;;;;45.17;24.05;;;12.00;99.90;;;;;;5013514;28;20050;-82
2022/05/06 07:16:58;;;;;;;44.58;23.52;;;12.40;99.90;;;;;;5012797;28;20108;-81
2022/05/06 07:19:24;;;;;;;41.50;24.35;;;12.70;99.90;;;;;;5014732;28;20096;-82
2022/05/06 07:21:51;;;;;;;37.55;21.08;;;12.90;99.90;;;;;;5014631;28;20078;-82
2022/05/06 07:24:18;;;;;;;41.25;23.23;;;13.10;99.90;;;;;;5014631;28;20053;-82
2022/05/06 07:26:43;;;;;;;41.85;23.95;;;13.20;99.90;;;;;;5016523;28;20508;-82
2022/05/06 07:29:09;;;;;;;35.05;22.17;;;13.20;99.90;;;;;;5016162;28;20046;-82
2022/05/06 07:31:34;;;;;;;36.30;22.98;;;13.40;99.90;;;;;;5016051;28;20042;-81
2022/05/06 07:34:00;;;;;;;33.88;22.38;;;13.70;99.90;;;;;;5015585;28;20532;-82
2022/05/06 07:36:26;;;;;;;40.00;23.55;;;13.90;99.90;;;;;;5014108;28;20065;-81
2022/05/06 07:38:51;;;;;;;43.58;23.77;;;14.10;99.90;;;;;;5012442;28;20056;-81
2022/05/06 07:41:18;;;;;;;40.97;23.90;;;14.20;99.90;;;;;;5013817;28;20042;-82
2022/05/06 07:43:44;;;;;;;40.78;24.40;;;14.20;99.90;;;;;;5013745;28;20081;-82
2022/05/06 07:46:10;;;;;;;45.13;26.65;;;14.20;99.90;;;;;;5013583;28;20053;-81
2022/05/06 07:48:36;;;;;;;38.65;24.38;;;14.20;99.90;;;;;;5012614;28;20088;-82
2022/05/06 07:51:02;;;;;;;40.63;25.25;;;14.20;99.90;;;;;;5014141;28;20041;-82
2022/05/06 07:53:28;;;;;;;39.17;23.13;;;14.50;99.90;;;;;;5013693;28;20045;-81
2022/05/06 07:55:53;;;;;;;35.17;21.38;;;14.70;99.90;;;;;;5013441;28;20103;-82
2022/05/06 07:58:19;;;;;;;35.22;22.45;;;15.10;99.90;;;;;;5014898;28;20065;-82
2022/05/06 08:00:44;;;;;;;31.65;22.13;;;15.30;99.90;;;;;;5014448;28;20391;-82
2022/05/06 08:05:57;;;;;;;37.97;22.30;;;16.00;99.90;;;;;;5015855;28;20103;-81
2022/05/06 08:08:27;;;;;;;34.80;21.15;;;16.20;99.90;;;;;;4996591;28;20057;-81
2022/05/06 08:10:53;;;;;;;30.85;19.98;;;16.30;99.90;;;;;;4996933;28;20043;-81
2022/05/06 08:13:19;;;;;;;28.52;19.13;;;16.50;99.90;;;;;;5001082;28;20458;-82
2022/05/06 08:15:45;;;;;;;28.08;17.45;;;16.80;99.90;;;;;;5013401;28;20457;-82
2022/05/06 08:18:11;;;;;;;25.80;16.55;;;17.40;99.90;;;;;;5014278;28;20050;-82
2022/05/06 08:20:39;;;;;;;24.13;16.80;;;18.10;99.90;;;;;;5014565;28;20042;-81
2022/05/06 08:23:06;;;;;;;27.27;17.20;;;19.00;99.90;;;;;;5012360;28;20049;-81
2022/05/06 08:25:32;;;;;;;22.27;15.73;;;19.20;99.90;;;;;;5012554;28;20091;-81
2022/05/06 08:27:57;;;;;;;21.10;14.35;;;19.70;99.90;;;;;;5011929;28;20046;-82
2022/05/06 08:30:24;;;;;;;21.88;13.95;;;20.20;99.90;;;;;;5011719;28;20631;-81
2022/05/06 08:32:51;;;;;;;17.55;13.65;;;20.80;97.00;;;;;;5012408;28;20441;-81
2022/05/06 08:35:17;;;;;;;17.17;12.10;;;21.60;88.40;;;;;;5013151;28;20506;-82
2022/05/06 08:37:45;;;;;;;17.25;12.48;;;22.00;78.90;;;;;;5012481;28;20065;-81
2022/05/06 08:40:35;;;;;;;16.23;11.82;;;22.30;74.20;;;;;;5013234;28;20057;-81
2022/05/06 08:43:01;;;;;;;16.75;12.10;;;22.60;68.80;;;;;;5013274;28;20103;-81
2022/05/06 08:51:00;;;;;;;18.02;9.65;;;21.30;71.20;;;;;;5010191;28;20060;-81
2022/05/06 08:53:28;;;;;;;15.15;10.45;;;20.70;79.60;;;;;;5014189;28;20402;-81
2022/05/06 08:55:56;;;;;;;14.98;9.65;;;20.60;78.60;;;;;;5014985;28;20045;-80
2022/05/06 08:58:23;;;;;;;13.65;9.43;;;20.30;78.20;;;;;;5015724;28;20517;-81
2022/05/06 09:00:49;;;;;;;14.20;9.57;;;20.00;81.70;;;;;;5014990;28;20133;-81
2022/05/06 09:03:16;;;;;;;12.20;8.35;;;19.60;80.50;;;;;;5014717;28;20045;-81
2022/05/06 09:05:53;;;;;;;12.35;9.10;;;19.10;86.70;;;;;;5014303;28;20050;-81
2022/05/06 09:08:20;;;;;;;12.70;7.90;;;18.80;90.60;;;;;;5014165;28;20121;-81
2022/05/06 09:11:00;;;;;;;10.77;7.97;;;18.90;90.90;;;;;;5014645;28;20061;-81
2022/05/06 09:13:26;;;;;;;10.80;8.02;;;19.20;87.50;;;;;;5014399;28;20100;-81
2022/05/06 09:18:37;;;;;;;12.10;7.50;;;21.40;76.50;;;;;;5013949;28;20056;-81
2022/05/06 09:21:10;;;;;;;9.32;6.88;;;21.90;60.70;;;;;;5013689;28;20045;-80
2022/05/06 09:23:35;;;;;;;8.68;6.30;;;21.90;56.20;;;;;;5013496;28;20510;-80
2022/05/06 09:26:01;;;;;;;8.73;6.38;;;22.50;52.20;;;;;;5013872;28;20049;-80
2022/05/06 09:28:28;;;;;;;7.97;5.38;;;22.90;41.80;;;;;;5014522;28;20045;-80
2022/05/06 09:31:08;;;;;;;8.00;6.10;;;22.80;28.80;;;;;;5013858;28;20074;-80
2022/05/06 09:33:41;;;;;;;7.93;6.13;;;22.70;33.70;;;;;;5014757;28;20397;-80
2022/05/06 09:36:29;;;;;;;8.65;5.70;;;22.50;32.00;;;;;;5014150;28;20057;-80
2022/05/06 09:39:02;;;;;;;10.05;5.55;;;22.20;34.50;;;;;;5014229;28;20052;-81
2022/05/06 09:41:27;;;;;;;6.82;4.68;;;21.80;37.10;;;;;;5017018;28;20478;-81
2022/05/06 09:43:59;;;;;;;12.48;5.97;;;21.90;37.40;;;;;;5018560;28;20092;-80
2022/05/06 09:46:25;;;;;;;7.93;4.97;;;22.00;37.90;;;;;;5018511;28;20148;-80
2022/05/06 09:48:56;;;;;;;4.93;3.53;;;21.80;37.80;;;;;;5018821;28;20510;-80
2022/05/06 09:51:26;;;;;;;5.78;3.92;;;21.30;33.60;;;;;;5018664;28;20042;-80
2022/05/06 09:53:53;;;;;;;6.07;3.20;;;21.20;31.70;;;;;;5019157;28;20044;-80
2022/05/06 09:56:20;;;;;;;8.10;3.78;;;21.00;32.00;;;;;;5018911;28;20077;-80
2022/05/06 09:58:46;;;;;;;5.35;3.53;;;21.00;34.20;;;;;;5018550;28;20034;-80
2022/05/06 10:01:13;;;;;;;6.25;3.28;;;20.90;38.50;;;;;;5018404;28;20056;-81
2022/05/06 10:03:39;;;;;;;4.22;2.85;;;21.10;40.90;;;;;;5017562;28;20053;-81
2022/05/06 10:06:09;;;;;;;4.50;3.25;;;21.40;31.30;;;;;;5018996;28;20038;-80
2022/05/06 10:08:37;;;;;;;4.10;2.45;;;21.30;23.00;;;;;;5019222;28;20074;-81
2022/05/06 10:11:12;;;;;;;4.20;2.78;;;21.40;21.70;;;;;;5019103;28;20053;-80
2022/05/06 10:13:43;;;;;;;4.30;2.85;;;21.20;24.50;;;;;;5017802;28;20048;-80
2022/05/06 10:16:10;;;;;;;6.47;2.97;;;21.10;28.20;;;;;;5019650;28;20049;-80
2022/05/06 10:18:43;;;;;;;4.85;3.50;;;21.20;29.30;;;;;;5018638;28;20089;-81
2022/05/06 10:21:13;;;;;;;6.63;3.33;;;21.50;25.70;;;;;;5018896;28;20122;-81
2022/05/06 10:23:43;;;;;;;4.93;3.38;;;21.70;26.40;;;;;;5017515;28;20046;-81
2022/05/06 10:26:09;;;;;;;4.95;3.25;;;22.30;21.30;;;;;;5019602;28;20049;-80
2022/05/06 10:34:13;;;;;;;6.00;3.30;;;22.50;13.40;;;;;;5019644;28;20084;-80
2022/05/06 10:36:50;;;;;;;3.85;2.90;;;22.50;16.70;;;;;;5018623;28;20145;-79
2022/05/06 10:39:24;;;;;;;3.90;2.92;;;22.70;13.20;;;;;;5018550;28;20100;-80
2022/05/06 10:42:04;;;;;;;4.68;3.33;;;23.00;13.60;;;;;;5018530;28;20481;-80
2022/05/06 10:44:49;;;;;;;5.25;3.75;;;23.30;12.60;;;;;;5020899;28;20038;-80
2022/05/06 10:47:21;;;;;;;5.85;3.08;;;23.50;8.40;;;;;;5021967;28;20125;-80
2022/05/06 10:49:53;;;;;;;6.32;3.17;;;23.30;6.60;;;;;;5021309;28;20050;-80
2022/05/06 10:52:32;;;;;;;6.90;3.38;;;23.10;6.40;;;;;;5017791;28;20046;-80
2022/05/06 10:55:03;;;;;;;5.90;3.22;;;22.90;8.30;;;;;;4997237;28;20050;-80
2022/05/06 10:57:30;;;;;;;5.85;3.17;;;22.90;11.10;;;;;;5002518;28;20038;-80
2022/05/06 11:00:01;;;;;;;5.38;3.70;;;22.70;9.00;;;;;;5017113;28;20062;-80
2022/05/06 11:02:29;;;;;;;5.88;3.40;;;22.60;9.00;;;;;;5016771;28;20052;-80
2022/05/06 11:04:59;;;;;;;6.45;3.72;;;22.10;12.60;;;;;;5017264;28;20050;-80
2022/05/06 11:07:27;;;;;;;4.50;2.83;;;22.40;13.50;;;;;;5019371;28;20045;-80
2022/05/06 11:09:52;;;;;;;6.25;3.05;;;22.80;7.80;;;;;;5018120;28;20478;-80
2022/05/06 11:12:33;;;;;;;7.88;3.60;;;23.20;4.20;;;;;;5017058;28;20042;-80
2022/05/06 11:14:59;;;;;;;6.97;3.10;;;23.60;4.10;;;;;;5017667;28;20037;-80
2022/05/06 11:17:24;;;;;;;6.45;2.63;;;23.90;2.20;;;;;;5017605;28;20053;-80
2022/05/06 11:19:51;;;;;;;5.22;3.53;;;24.30;2.20;;;;;;5017966;28;20490;-80
2022/05/06 11:22:17;;;;;;;5.22;3.20;;;24.60;1.00;;;;;;5016448;28;20038;-80
2022/05/06 11:24:46;;;;;;;8.77;3.28;;;24.70;1.00;;;;;;5018228;28;20096;-81
2022/05/06 11:27:21;;;;;;;7.47;3.33;;;24.60;1.00;;;;;;5017762;28;20048;-81
2022/05/06 11:29:56;;;;;;;3.42;2.35;;;24.80;1.00;;;;;;5017680;28;20493;-80
2022/05/06 11:32:23;;;;;;;3.67;2.70;;;25.10;1.00;;;;;;5017879;28;20723;-80
2022/05/06 11:34:57;;;;;;;4.57;2.83;;;25.50;1.00;;;;;;5016311;28;20052;-80
2022/05/06 11:37:25;;;;;;;6.22;2.65;;;25.80;1.00;;;;;;5016090;28;20037;-80
2022/05/06 11:39:51;;;;;;;3.40;1.80;;;26.40;1.00;;;;;;5017323;28;20092;-81
2022/05/06 11:42:23;;;;;;;3.60;1.85;;;26.30;1.00;;;;;;5016807;28;20061;-81
2022/05/06 11:47:43;;;;;;;4.25;2.40;;;26.00;1.00;;;;;;5016507;28;20104;-81
2022/05/06 11:50:09;;;;;;;4.03;2.00;;;26.60;1.00;;;;;;5018838;28;20046;-80
2022/05/06 11:52:38;;;;;;;3.30;2.03;;;26.80;1.00;;;;;;5017364;28;20049;-80
2022/05/06 11:55:05;;;;;;;4.35;1.63;;;26.70;1.00;;;;;;5015484;28;20041;-80
2022/05/06 11:57:31;;;;;;;4.88;1.50;;;27.20;1.00;;;;;;5016663;28;20042;-80
2022/05/06 11:59:57;;;;;;;4.22;1.65;;;27.20;1.00;;;;;;5018924;28;20375;-80
2022/05/06 12:02:23;;;;;;;6.25;2.20;;;27.00;1.00;;;;;;5018143;28;20052;-80
2022/05/06 12:04:48;;;;;;;4.32;1.33;;;27.30;1.00;;;;;;5016746;28;20034;-80
2022/05/06 12:07:14;;;;;;;5.13;2.30;;;26.90;1.00;;;;;;5016586;28;20092;-80
2022/05/06 12:09:44;;;;;;;7.75;1.58;;;27.00;1.00;;;;;;5018380;28;20042;-80
2022/05/06 12:12:10;;;;;;;5.65;1.65;;;27.20;1.00;;;;;;5017404;28;20038;-80
2022/05/06 12:14:37;;;;;;;2.88;1.60;;;27.70;1.00;;;;;;5015730;28;20460;-80
2022/05/06 12:17:21;;;;;;;4.90;1.90;;;28.40;1.00;;;;;;5016766;28;20116;-80
2022/05/06 12:19:47;;;;;;;4.30;1.70;;;28.30;1.00;;;;;;5016206;28;20049;-80
2022/05/06 12:22:14;;;;;;;4.13;1.92;;;28.00;1.00;;;;;;5017008;28;20069;-80
2022/05/06 12:24:51;;;;;;;3.67;1.67;;;28.40;1.00;;;;;;5015975;28;20107;-80
2022/05/06 12:27:34;;;;;;;5.03;1.80;;;28.70;1.00;;;;;;5016182;28;20060;-80
2022/05/06 12:30:01;;;;;;;3.47;1.60;;;28.50;1.00;;;;;;5015473;28;20092;-80
2022/05/06 12:32:30;;;;;;;7.18;1.60;;;27.60;1.00;;;;;;5016113;28;20042;-80
2022/05/06 12:35:03;;;;;;;4.55;1.95;;;27.40;1.00;;;;;;5015492;28;20467;-80
2022/05/06 12:37:29;;;;;;;4.85;2.47;;;28.00;1.00;;;;;;5004389;28;20454;-80
2022/05/06 12:39:59;;;;;;;3.80;1.80;;;27.20;1.00;;;;;;5014933;28;20081;-80
2022/05/06 12:42:25;;;;;;;5.07;2.22;;;26.20;1.00;;;;;;5015412;28;20116;-80
2022/05/06 12:44:51;;;;;;;3.00;1.40;;;26.20;1.00;;;;;;5015415;28;20069;-80
2022/05/06 12:50:05;;;;;;;4.60;1.80;;;25.10;1.00;;;;;;5016479;28;20460;-80
2022/05/06 12:52:31;;;;;;;3.30;1.40;;;25.00;1.00;;;;;;5016340;28;20046;-80
2022/05/06 12:54:57;;;;;;;5.68;1.80;;;25.50;1.00;;;;;;5017653;28;20446;-81
2022/05/06 12:57:24;;;;;;;4.15;1.90;;;26.00;1.00;;;;;;5016218;28;20069;-80
2022/05/06 12:59:50;;;;;;;3.13;1.58;;;25.90;1.00;;;;;;5016518;28;20050;-80
2022/05/06 13:02:16;;;;;;;4.32;1.88;;;25.80;1.00;;;;;;5016302;28;20398;-80
2022/05/06 13:04:41;;;;;;;5.40;2.10;;;25.60;1.00;;;;;;5016291;28;20069;-79
2022/05/06 13:07:07;;;;;;;5.88;2.20;;;25.10;1.00;;;;;;5014589;28;20516;-79
2022/05/06 13:09:32;;;;;;;7.45;2.10;;;24.60;1.00;;;;;;5014358;28;20037;-79
2022/05/06 13:11:58;;;;;;;5.07;1.65;;;24.40;1.00;;;;;;5015371;28;20049;-79
2022/05/06 13:14:23;;;;;;;3.10;1.63;;;24.70;1.00;;;;;;5017282;28;20505;-80
2022/05/06 13:16:51;;;;;;;3.50;2.10;;;24.50;1.00;;;;;;5017444;28;20041;-80
2022/05/06 13:19:16;;;;;;;3.05;1.35;;;24.20;1.00;;;;;;5014499;28;20050;-80
2022/05/06 13:21:42;;;;;;;3.13;1.30;;;23.80;1.00;;;;;;5013924;28;20068;-80
2022/05/06 13:24:08;;;;;;;6.40;1.38;;;24.10;1.00;;;;;;5013936;28;20567;-80